• Join FlightAware (Why Join?)
  • Login
  • US Flag 
02:40AM EDT


 

Airport Tracker/Info


-or-


 

Live Flight TrackerFlight Track Log ✈ QXE2079 ✈ 25-Jul-2014 ✈ KALW - KSEA

Flight Track Log - Related Links

Times and Time Zones

All times are in EDT time to prevent confusion due to time zone crossing. See the QXE2079 flight status page for this flight to view local times or setup timezone preferences in your user account.

Time Position Orientation Groundspeed Altitude Reporting Facility
EDT Latitude Longitude Course Direction KTS MPH feet Rate Location/Type
05:17PM 46.1977 -118.8218 286° West  Level FlightAware Approximate
05:18PM 46.2208 -118.9299 287° West  Level FlightAware Approximate
05:19PM 46.2439 -119.0380 287° West  Level FlightAware Approximate
05:20PM 46.2618 -119.1468 290° West  Level FlightAware Approximate
05:21PM 46.2885 -119.2533 290° West  Level FlightAware Approximate
05:22PM 46.3151 -119.3598 290° West  Level FlightAware Approximate
05:23PM 46.3363 -119.4680 284° West  Level FlightAware Approximate
05:24PM 46.3568 -119.5773 290° West  Level FlightAware Approximate
05:25PM 46.3835 -119.6840 294° West  Level FlightAware Approximate
05:26PM 46.4148 -119.7880 294° West  Level FlightAware Approximate
05:27PM 46.4408 -119.8947 284° West  Level FlightAware Approximate
05:28PM 46.4630 -120.0034 290° West  Level FlightAware Approximate
05:29PM 46.4891 -120.1106 289° West  Level FlightAware Approximate
05:30PM 46.5150 -120.2179 289° West  Level FlightAware Approximate
05:31PM 46.5408 -120.3253 289° West  Level FlightAware Approximate
05:32PM 46.5666 -120.4329 289° West  Level FlightAware Approximate
05:33PM 46.6040 -120.5329 299° West  Level FlightAware Approximate
05:34PM 46.6522 -120.6217 302° West  Level FlightAware Approximate
05:35PM 46.6937 -120.7186 302° West  Level FlightAware Approximate
05:36PM 46.7369 -120.8138 302° West  Level FlightAware Approximate
05:37PM 46.7797 -120.9094 306° West  Level FlightAware Approximate
05:38PM 46.8259 -121.0018 306° West  Level FlightAware Approximate
05:39PM 46.8705 -121.0959 303° West  Level FlightAware Approximate
05:40PM 46.9133 -121.1920 303° West  Level FlightAware Approximate
05:41PM 46.9566 -121.2876 302° West  Level FlightAware Approximate
05:42PM 47.0062 -121.3640 303° West  Level FlightAware Approximate
05:43PM 47.0490 -121.4602 303° West  Level FlightAware Approximate
05:44PM 47.0825 -121.5634 290° West  Level FlightAware Approximate
05:45PM 47.1322 -121.6521 310° West  Level FlightAware Approximate
05:46PM 47.1733 -121.7466 306° West  Level FlightAware Approximate
05:47PM 47.2233 -121.8333 301° West  Level FlightAware Approximate
05:48PM 47.2631 -121.9327 301° West  Level FlightAware Approximate
05:49PM 47.3005 -122.0340 315° West  Level FlightAware Approximate
05:50PM 47.3472 -122.1250 296° West  Level FlightAware Approximate
05:51PM 47.3928 -122.2189 306° West  Level FlightAware Approximate
05:52PM 47.4333 -122.3000 306° West  Level FlightAware Approximate
05:53PM 47.4499 -122.3118 306° West  Level Estimated
05:54PM 47.4499 -122.3118 306° West  Level Estimated
05:55PM 47.4499 -122.3118 306° West  Level Estimated
05:56PM 47.4499 -122.3118 306° West  Level Estimated
05:57PM 47.4499 -122.3118 306° West  Level Estimated
05:58PM 47.4499 -122.3118 306° West  Level Estimated
05:59PM 47.4499 -122.3118 306° West  Level Estimated
06:00PM 47.4499 -122.3118 306° West  Level Estimated
06:01PM 47.4499 -122.3118 306° West  Level Estimated
06:02PM 47.4499 -122.3118 306° West  Level Estimated
06:03PM 47.4499 -122.3118 306° West  Level Estimated
06:04PM 47.4499 -122.3118 306° West  Level Estimated
06:05PM 47.4499 -122.3118 306° West  Level Estimated
06:06PM 47.4499 -122.3118 306° West  Level Estimated
06:07PM 47.4499 -122.3118 306° West  Level Estimated